createdAt,value
2022-10-25T00:02:26.191Z,1.50
2022-10-25T00:05:18.122Z,1.50
2022-10-25T00:08:10.613Z,1.50
2022-10-25T00:13:41.499Z,1.42
2022-10-25T00:16:34.869Z,1.27
2022-10-25T00:22:04.262Z,1.30
2022-10-25T00:24:55.610Z,1.20
2022-10-25T00:27:47.933Z,1.60
2022-10-25T00:30:39.748Z,1.50
2022-10-25T00:33:32.808Z,1.85
2022-10-25T00:36:25.495Z,1.40
2022-10-25T00:39:16.791Z,1.67
2022-10-25T00:42:09.415Z,1.72
2022-10-25T00:45:02.601Z,1.57
2022-10-25T00:47:59.048Z,1.92
2022-10-25T00:50:52.376Z,2.08
2022-10-25T00:53:44.621Z,2.08
2022-10-25T00:56:39.476Z,1.85
2022-10-25T00:59:30.834Z,1.85
2022-10-25T01:02:23.614Z,1.92
2022-10-25T01:05:15.213Z,1.70
2022-10-25T01:08:07.392Z,1.90
2022-10-25T01:10:58.493Z,1.70
2022-10-25T01:13:51.291Z,1.80
2022-10-25T01:16:45.662Z,1.72
2022-10-25T01:19:49.389Z,1.80
2022-10-25T01:22:44.278Z,1.77
2022-10-25T01:25:56.859Z,2.00
2022-10-25T01:28:55.910Z,2.30
2022-10-25T01:31:49.953Z,2.02
2022-10-25T01:34:43.931Z,2.15
2022-10-25T01:40:20.348Z,1.87
2022-10-25T01:43:14.329Z,1.60
2022-10-25T01:46:09.890Z,2.17
2022-10-25T01:49:04.776Z,1.80
2022-10-25T01:54:35.280Z,2.10
2022-10-25T02:00:27.205Z,1.92
2022-10-25T02:03:21.924Z,1.65
2022-10-25T02:09:03.096Z,1.55
2022-10-25T02:11:57.123Z,1.47
2022-10-25T02:17:29.173Z,1.55
2022-10-25T02:20:23.093Z,1.62
2022-10-25T02:23:16.473Z,1.62
2022-10-25T02:26:09.636Z,1.70
2022-10-25T02:29:01.991Z,1.62
2022-10-25T02:31:53.459Z,1.82
2022-10-25T02:34:45.108Z,1.47
2022-10-25T02:37:36.264Z,1.60
2022-10-25T02:40:28.520Z,1.70
2022-10-25T02:43:19.585Z,1.40
2022-10-25T02:46:12.622Z,1.45
2022-10-25T02:49:03.876Z,1.40
2022-10-25T02:51:54.883Z,1.37
2022-10-25T02:54:45.961Z,1.50
2022-10-25T02:57:38.253Z,1.30
2022-10-25T03:12:37.001Z,1.40
2022-10-25T03:15:28.010Z,1.50
2022-10-25T03:18:19.629Z,1.12
2022-10-25T03:21:10.861Z,1.40
2022-10-25T03:24:01.995Z,1.70
2022-10-25T03:26:53.252Z,1.92
2022-10-25T03:29:44.608Z,2.40
2022-10-25T03:32:35.871Z,2.12
2022-10-25T03:35:27.566Z,1.82
2022-10-25T03:38:18.845Z,2.27
2022-10-25T03:41:10.137Z,2.62
2022-10-25T03:44:01.617Z,2.90
2022-10-25T03:46:53.047Z,2.90
2022-10-25T03:49:44.329Z,2.80
2022-10-25T03:52:35.944Z,2.50
2022-10-25T03:55:27.300Z,2.55
2022-10-25T03:58:19.855Z,2.37
2022-10-25T04:01:11.667Z,2.85
2022-10-25T04:04:03.111Z,2.87
2022-10-25T04:06:54.473Z,2.95
2022-10-25T04:09:46.648Z,3.30
2022-10-25T04:12:37.838Z,3.12
2022-10-25T04:15:29.405Z,3.20
2022-10-25T04:18:20.537Z,3.40
2022-10-25T04:21:11.780Z,3.55
2022-10-25T04:24:04.428Z,4.22
2022-10-25T04:26:55.720Z,4.28
2022-10-25T04:29:50.945Z,4.35
2022-10-25T04:32:44.552Z,4.60
2022-10-25T04:35:41.505Z,5.12
2022-10-25T04:38:35.144Z,5.00
2022-10-25T04:41:27.176Z,5.03
2022-10-25T04:44:21.985Z,5.65
2022-10-25T04:47:16.969Z,5.50
2022-10-25T04:50:11.271Z,5.17
2022-10-25T04:53:06.751Z,5.10
2022-10-25T04:56:03.012Z,4.50
2022-10-25T04:58:57.164Z,4.50
2022-10-25T05:04:44.850Z,4.15
2022-10-25T05:07:38.100Z,3.98
2022-10-25T05:10:29.547Z,3.35
2022-10-25T05:13:24.137Z,3.75
2022-10-25T05:16:22.875Z,3.90
2022-10-25T05:19:16.539Z,4.05
2022-10-25T05:22:08.709Z,3.30
2022-10-25T05:25:01.716Z,3.12
2022-10-25T05:27:54.891Z,3.00
2022-10-25T05:30:51.195Z,3.50
2022-10-25T05:33:45.203Z,3.33
2022-10-25T05:36:37.403Z,3.60
2022-10-25T05:39:32.304Z,3.65
2022-10-25T05:42:26.318Z,3.27
2022-10-25T05:45:20.540Z,3.22
2022-10-25T05:48:13.240Z,3.42
2022-10-25T05:51:32.836Z,4.00
2022-10-25T05:54:15.213Z,4.47
2022-10-25T05:57:10.742Z,4.08
2022-10-25T06:02:41.823Z,3.20
2022-10-25T06:05:34.875Z,3.75
2022-10-25T06:08:26.475Z,6.42
2022-10-25T06:11:27.038Z,4.47
2022-10-25T06:14:18.436Z,3.60
2022-10-25T06:17:09.893Z,3.45
2022-10-25T06:20:01.055Z,3.08
2022-10-25T06:22:52.862Z,3.72
2022-10-25T06:25:44.075Z,2.80
2022-10-25T06:28:35.957Z,2.77
2022-10-25T06:31:28.183Z,3.10
2022-10-25T06:34:20.691Z,3.05
2022-10-25T06:37:12.060Z,3.77
2022-10-25T06:40:03.352Z,3.45
2022-10-25T06:42:57.672Z,3.47
2022-10-25T06:45:49.148Z,3.98
2022-10-25T06:48:40.639Z,2.95
2022-10-25T06:51:32.837Z,2.90
2022-10-25T06:54:25.677Z,4.10
2022-10-25T06:57:16.929Z,3.52
2022-10-25T07:00:11.189Z,2.90
2022-10-25T07:03:02.663Z,3.35
2022-10-25T07:05:53.845Z,3.47
2022-10-25T07:08:47.593Z,2.90
2022-10-25T07:11:39.749Z,3.67
2022-10-25T07:14:31.029Z,3.27
2022-10-25T07:17:22.469Z,2.83
2022-10-25T07:20:14.539Z,3.12
2022-10-25T07:23:08.795Z,2.80
2022-10-25T07:25:59.822Z,2.62
2022-10-25T07:28:53.551Z,2.90
2022-10-25T07:31:46.050Z,2.70
2022-10-25T07:34:37.906Z,2.62
2022-10-25T07:37:29.278Z,2.83
2022-10-25T07:40:20.783Z,2.95
2022-10-25T07:43:12.591Z,3.00
2022-10-25T07:46:05.123Z,3.08
2022-10-25T07:48:56.526Z,3.42
2022-10-25T07:51:47.793Z,3.20
2022-10-25T07:54:39.512Z,3.35
2022-10-25T07:57:31.115Z,3.40
2022-10-25T08:00:22.876Z,4.08
2022-10-25T08:03:15.637Z,3.17
2022-10-25T08:06:07.734Z,2.90
2022-10-25T08:09:05.432Z,3.27
2022-10-25T08:11:52.036Z,3.20
2022-10-25T08:14:46.191Z,3.80
2022-10-25T08:17:36.627Z,4.25
2022-10-25T08:20:49.195Z,4.90
2022-10-25T08:23:21.482Z,4.87
2022-10-25T08:26:12.973Z,4.47
2022-10-25T08:29:04.580Z,3.50
2022-10-25T08:31:55.873Z,3.72
2022-10-25T08:34:47.503Z,3.10
2022-10-25T08:37:38.982Z,2.98
2022-10-25T08:40:34.797Z,3.00
2022-10-25T08:43:36.135Z,2.60
2022-10-25T08:46:30.424Z,2.47
2022-10-25T09:06:16.813Z,1.80
2022-10-25T09:09:19.845Z,2.10
2022-10-25T09:12:16.149Z,1.60
2022-10-25T09:15:11.118Z,1.85
2022-10-25T09:18:05.402Z,2.85
2022-10-25T09:20:57.007Z,2.75
2022-10-25T09:26:44.057Z,2.00
2022-10-25T09:29:39.208Z,2.12
2022-10-25T09:32:35.454Z,2.45
2022-10-25T09:35:29.698Z,2.60
2022-10-25T09:38:24.058Z,1.67
2022-10-25T09:41:18.482Z,1.70
2022-10-25T09:47:03.337Z,1.20
2022-10-25T09:49:58.739Z,1.60
2022-10-25T09:52:54.305Z,1.95
2022-10-25T09:55:50.471Z,1.45
2022-10-25T09:58:45.102Z,2.70
2022-10-25T10:01:38.839Z,2.20
2022-10-25T10:04:35.231Z,2.05
2022-10-25T10:07:29.424Z,1.40
2022-10-25T10:10:24.484Z,1.42
2022-10-25T10:13:23.205Z,1.65
2022-10-25T10:16:19.462Z,1.75
2022-10-25T10:19:19.160Z,1.92
2022-10-25T10:22:13.128Z,2.05
2022-10-25T10:25:06.860Z,1.82
2022-10-25T10:28:00.509Z,1.52
2022-10-25T10:30:57.937Z,1.80
2022-10-25T10:33:52.395Z,2.08
2022-10-25T10:36:45.914Z,2.62
2022-10-25T10:39:37.162Z,2.33
2022-10-25T10:42:35.666Z,2.47
2022-10-25T10:45:27.164Z,1.75
2022-10-25T10:48:21.996Z,1.85
2022-10-25T10:51:32.000Z,1.90
2022-10-25T11:08:25.975Z,2.42
2022-10-25T11:14:13.838Z,1.92
2022-10-25T11:17:09.121Z,2.00
2022-10-25T11:20:06.953Z,2.02
2022-10-25T11:25:56.279Z,1.62
2022-10-25T11:28:51.509Z,1.92
2022-10-25T11:31:50.448Z,2.10
2022-10-25T11:34:44.604Z,1.20
2022-10-25T11:37:38.801Z,1.42
2022-10-25T11:40:33.416Z,1.62
2022-10-25T11:46:42.852Z,1.20
2022-10-25T11:49:42.726Z,1.47
2022-10-25T11:52:51.150Z,1.20
2022-10-25T11:55:45.264Z,1.57
2022-10-25T11:58:45.460Z,1.40
2022-10-25T12:01:42.756Z,1.10
2022-10-25T12:04:52.622Z,1.30
2022-10-25T12:10:30.064Z,1.10
2022-10-25T12:13:24.527Z,1.42
2022-10-25T12:16:19.108Z,1.37
2022-10-25T12:19:15.368Z,1.45
2022-10-25T12:22:09.315Z,1.02
2022-10-25T12:25:02.519Z,1.47
2022-10-25T12:27:59.518Z,1.40
2022-10-25T12:30:53.476Z,1.60
2022-10-25T12:33:47.662Z,1.50
2022-10-25T12:36:41.606Z,1.65
2022-10-25T12:39:38.174Z,1.45
2022-10-25T12:49:01.612Z,1.40
2022-10-25T12:52:01.762Z,1.40
2022-10-25T12:55:12.038Z,1.10
2022-10-25T12:58:16.473Z,1.70
2022-10-25T13:01:15.537Z,1.85
2022-10-25T13:04:29.874Z,1.60
2022-10-25T13:07:22.648Z,1.50
2022-10-25T13:10:21.548Z,1.10
2022-10-25T13:13:20.255Z,1.80
2022-10-25T13:16:21.231Z,1.12
2022-10-25T13:22:38.913Z,1.30
2022-10-25T13:26:06.556Z,1.07
2022-10-25T13:28:59.612Z,1.60
2022-10-25T13:32:00.963Z,1.20
2022-10-25T13:34:52.366Z,1.77
2022-10-25T13:37:45.793Z,1.05
2022-10-25T13:40:38.645Z,1.50
2022-10-25T13:43:29.840Z,3.50
2022-10-25T13:46:23.186Z,1.55
2022-10-25T13:49:34.110Z,1.10
2022-10-25T13:52:28.728Z,1.00
2022-10-25T13:55:23.653Z,1.27
2022-10-25T13:58:46.791Z,1.67
2022-10-25T14:01:55.641Z,1.50
2022-10-25T14:04:47.690Z,3.45
2022-10-25T14:07:51.056Z,1.92
2022-10-25T14:10:44.440Z,1.55
2022-10-25T14:13:39.300Z,1.50
2022-10-25T14:16:33.819Z,2.22
2022-10-25T14:19:28.335Z,1.77
2022-10-25T14:22:22.226Z,2.35
2022-10-25T14:25:21.451Z,1.85
2022-10-25T14:28:17.567Z,1.25
2022-10-25T14:31:09.605Z,1.30
2022-10-25T14:34:01.020Z,1.40
2022-10-25T14:36:54.195Z,1.52
2022-10-25T14:39:55.810Z,1.70
2022-10-25T14:42:47.539Z,1.20
2022-10-25T14:45:39.300Z,1.17
2022-10-25T14:48:32.623Z,1.25
2022-10-25T14:51:27.674Z,1.55
2022-10-25T14:54:28.604Z,1.30
2022-10-25T14:57:24.172Z,1.45
2022-10-25T15:00:23.570Z,1.32
2022-10-25T15:03:15.972Z,1.50
2022-10-25T15:06:08.030Z,1.42
2022-10-25T15:09:30.046Z,1.17
2022-10-25T15:12:15.490Z,1.30
2022-10-25T15:15:31.560Z,1.55
2022-10-25T15:18:36.343Z,1.80
2022-10-25T15:21:30.761Z,1.65
2022-10-25T15:24:24.334Z,1.52
2022-10-25T15:27:31.338Z,1.60
2022-10-25T15:33:20.712Z,1.30
2022-10-25T15:36:24.163Z,1.45
2022-10-25T15:39:21.793Z,2.40
2022-10-25T15:42:15.259Z,2.62
2022-10-25T15:45:07.664Z,3.10
2022-10-25T15:47:59.404Z,2.25
2022-10-25T15:50:53.488Z,2.40
2022-10-25T15:53:44.792Z,1.52
2022-10-25T15:56:36.231Z,1.40
2022-10-25T15:59:27.604Z,1.60
2022-10-25T16:02:22.199Z,1.47
2022-10-25T16:05:19.121Z,2.20
2022-10-25T16:08:11.386Z,1.40
2022-10-25T16:11:03.321Z,1.67
2022-10-25T16:13:55.749Z,1.60
2022-10-25T16:16:47.604Z,1.60
2022-10-25T16:19:39.161Z,1.60
2022-10-25T16:22:30.790Z,1.80
2022-10-25T16:25:25.200Z,1.75
2022-10-25T16:28:16.980Z,1.60
2022-10-25T16:31:08.186Z,1.52
2022-10-25T16:33:59.709Z,1.70
2022-10-25T16:36:52.922Z,1.65
2022-10-25T16:39:44.192Z,1.87
2022-10-25T16:42:37.248Z,1.67
2022-10-25T16:45:31.199Z,1.77
2022-10-25T16:48:23.434Z,1.70
2022-10-25T16:51:16.320Z,1.70
2022-10-25T16:54:08.591Z,1.45
2022-10-25T16:57:00.090Z,1.85
2022-10-25T16:59:51.777Z,1.65
2022-10-25T17:02:43.628Z,2.00
2022-10-25T17:05:36.371Z,1.90
2022-10-25T17:08:27.499Z,1.62
2022-10-25T17:11:19.225Z,1.55
2022-10-25T17:14:11.434Z,2.02
2022-10-25T17:17:03.496Z,1.98
2022-10-25T17:19:55.096Z,1.70
2022-10-25T17:22:48.184Z,1.65
2022-10-25T17:25:39.430Z,1.62
2022-10-25T17:28:31.834Z,1.40
2022-10-25T17:31:23.328Z,1.75
2022-10-25T17:34:15.182Z,1.47
2022-10-25T17:37:06.712Z,1.75
2022-10-25T17:39:58.165Z,1.77
2022-10-25T17:42:49.963Z,1.75
2022-10-25T17:45:41.252Z,1.98
2022-10-25T17:51:13.484Z,1.75
2022-10-25T17:54:04.671Z,2.05
2022-10-25T17:56:57.887Z,2.10
2022-10-25T18:02:28.857Z,1.75
2022-10-25T18:05:21.727Z,1.90
2022-10-25T18:08:13.365Z,1.85
2022-10-25T18:11:11.127Z,1.75
2022-10-25T18:16:43.135Z,1.32
2022-10-25T18:19:34.323Z,1.30
2022-10-25T18:22:26.427Z,1.47
2022-10-25T18:25:18.238Z,1.65
2022-10-25T18:28:09.822Z,1.57
2022-10-25T18:31:05.631Z,1.95
2022-10-25T18:33:59.322Z,1.92
2022-10-25T18:36:50.584Z,2.15
2022-10-25T18:39:42.158Z,1.75
2022-10-25T18:42:34.600Z,2.05
2022-10-25T18:45:27.958Z,2.10
2022-10-25T18:48:19.260Z,2.02
2022-10-25T18:51:13.347Z,2.40
2022-10-25T18:59:30.119Z,1.80
2022-10-25T19:02:21.637Z,1.67
2022-10-25T19:05:13.124Z,1.60
2022-10-25T19:08:04.657Z,1.90
2022-10-25T19:13:34.833Z,2.15
2022-10-25T19:16:26.270Z,2.00
2022-10-25T19:19:17.952Z,2.12
2022-10-25T19:22:09.173Z,2.22
2022-10-25T19:25:00.573Z,2.70
2022-10-25T19:27:52.112Z,1.77
2022-10-25T19:30:43.634Z,2.15
2022-10-25T19:33:35.623Z,2.08
2022-10-25T19:36:26.878Z,2.05
2022-10-25T19:39:18.334Z,1.80
2022-10-25T19:42:11.574Z,1.60
2022-10-25T19:45:03.700Z,1.85
2022-10-25T19:47:56.775Z,1.80
2022-10-25T19:50:50.541Z,1.60
2022-10-25T19:53:42.264Z,1.62
2022-10-25T19:56:36.959Z,1.98
2022-10-25T19:59:28.387Z,1.70
2022-10-25T20:02:19.932Z,1.70
2022-10-25T20:08:05.425Z,2.10
2022-10-25T20:10:58.588Z,1.80
2022-10-25T20:13:51.373Z,2.02
2022-10-25T20:16:42.636Z,1.85
2022-10-25T20:19:37.467Z,1.40
2022-10-25T20:22:28.671Z,1.75
2022-10-25T20:25:20.238Z,1.80
2022-10-25T20:28:11.639Z,1.50
2022-10-25T20:31:06.204Z,1.82
2022-10-25T20:33:58.631Z,1.80
2022-10-25T20:36:49.954Z,2.17
2022-10-25T20:39:41.218Z,1.60
2022-10-25T20:42:32.607Z,1.20
2022-10-25T20:45:24.074Z,1.60
2022-10-25T20:48:15.576Z,1.90
2022-10-25T20:51:08.134Z,2.10
2022-10-25T20:53:59.695Z,1.67
2022-10-25T20:56:51.131Z,1.80
2022-10-25T20:59:42.631Z,1.85
2022-10-25T21:02:34.387Z,1.62
2022-10-25T21:05:25.731Z,1.40
2022-10-25T21:08:21.371Z,1.67
2022-10-25T21:11:14.724Z,2.27
2022-10-25T21:14:07.197Z,1.98
2022-10-25T21:16:59.492Z,1.70
2022-10-25T21:19:57.117Z,1.65
2022-10-25T21:22:54.011Z,1.82
2022-10-25T21:25:50.750Z,1.67
2022-10-25T21:28:46.209Z,1.70
2022-10-25T21:31:39.733Z,1.92
2022-10-25T21:34:33.039Z,2.35
2022-10-25T21:40:05.051Z,1.60
2022-10-25T21:42:57.582Z,2.00
2022-10-25T21:45:50.069Z,1.82
2022-10-25T21:48:42.157Z,1.70
2022-10-25T21:51:33.411Z,1.57
2022-10-25T21:54:24.980Z,1.70
2022-10-25T21:57:16.102Z,1.52
2022-10-25T22:00:10.554Z,1.50
2022-10-25T22:03:03.469Z,1.37
2022-10-25T22:05:54.726Z,1.10
2022-10-25T22:08:46.818Z,1.45
2022-10-25T22:11:39.915Z,1.60
2022-10-25T22:14:31.538Z,1.55
2022-10-25T22:17:24.319Z,1.45
2022-10-25T22:20:15.550Z,1.50
2022-10-25T22:23:07.078Z,1.82
2022-10-25T22:26:02.494Z,1.22
2022-10-25T22:28:55.550Z,1.75
2022-10-25T22:31:46.946Z,1.40
2022-10-25T22:34:38.646Z,1.60
2022-10-25T22:37:30.182Z,1.57
2022-10-25T22:40:21.738Z,1.40
2022-10-25T22:43:13.198Z,1.60
2022-10-25T22:46:05.598Z,1.42
2022-10-25T22:48:59.702Z,1.60
2022-10-25T22:51:51.453Z,1.90
2022-10-25T22:57:29.638Z,1.37
2022-10-25T23:00:21.342Z,1.65
2022-10-25T23:03:12.871Z,1.20
2022-10-25T23:06:06.242Z,1.50
2022-10-25T23:08:58.421Z,1.45
2022-10-25T23:11:50.132Z,1.50
2022-10-25T23:14:41.438Z,1.30
2022-10-25T23:17:32.600Z,1.30
2022-10-25T23:20:23.874Z,1.82
2022-10-25T23:23:15.440Z,1.40
2022-10-25T23:29:00.042Z,1.22
2022-10-25T23:31:51.660Z,1.72
2022-10-25T23:34:43.097Z,1.30
2022-10-25T23:37:34.531Z,1.52
2022-10-25T23:40:25.958Z,1.47
2022-10-25T23:43:17.416Z,1.30
2022-10-25T23:46:09.361Z,1.50
2022-10-25T23:49:01.023Z,1.80
2022-10-25T23:51:53.862Z,1.32
2022-10-25T23:54:45.266Z,1.42
2022-10-25T23:57:36.647Z,1.37
